sensor_id;sensor_type;location;lat;lon;timestamp;P1;durP1;ratioP1;P2;durP2;ratioP2
22963;SDS011;11648;49.306;6.934;2023-09-12T00:00:45;10.13;;;6.37;;
22963;SDS011;11648;49.306;6.934;2023-09-12T00:03:12;8.83;;;6.33;;
22963;SDS011;11648;49.306;6.934;2023-09-12T00:05:39;8.30;;;6.27;;
22963;SDS011;11648;49.306;6.934;2023-09-12T00:08:06;8.90;;;6.00;;
22963;SDS011;11648;49.306;6.934;2023-09-12T00:10:33;8.43;;;6.20;;
22963;SDS011;11648;49.306;6.934;2023-09-12T00:13:00;9.40;;;6.67;;
22963;SDS011;11648;49.306;6.934;2023-09-12T00:15:27;13.30;;;7.03;;
22963;SDS011;11648;49.306;6.934;2023-09-12T00:17:54;6.93;;;6.13;;
22963;SDS011;11648;49.306;6.934;2023-09-12T00:20:21;11.10;;;6.80;;
22963;SDS011;11648;49.306;6.934;2023-09-12T00:22:48;9.83;;;6.27;;
22963;SDS011;11648;49.306;6.934;2023-09-12T00:25:15;10.20;;;6.70;;
22963;SDS011;11648;49.306;6.934;2023-09-12T00:27:41;13.63;;;6.90;;
22963;SDS011;11648;49.306;6.934;2023-09-12T00:30:08;9.30;;;6.90;;
22963;SDS011;11648;49.306;6.934;2023-09-12T00:32:35;11.00;;;6.70;;
22963;SDS011;11648;49.306;6.934;2023-09-12T00:35:02;10.97;;;6.80;;
22963;SDS011;11648;49.306;6.934;2023-09-12T00:37:29;11.33;;;6.37;;
22963;SDS011;11648;49.306;6.934;2023-09-12T00:39:55;9.23;;;6.43;;
22963;SDS011;11648;49.306;6.934;2023-09-12T00:42:26;9.17;;;6.50;;
22963;SDS011;11648;49.306;6.934;2023-09-12T00:44:53;9.93;;;6.80;;
22963;SDS011;11648;49.306;6.934;2023-09-12T00:47:20;10.00;;;6.63;;
22963;SDS011;11648;49.306;6.934;2023-09-12T00:49:48;11.47;;;7.20;;
22963;SDS011;11648;49.306;6.934;2023-09-12T00:52:22;10.03;;;6.70;;
22963;SDS011;11648;49.306;6.934;2023-09-12T00:54:52;8.50;;;6.47;;
22963;SDS011;11648;49.306;6.934;2023-09-12T00:57:20;10.53;;;6.73;;
22963;SDS011;11648;49.306;6.934;2023-09-12T00:59:49;9.80;;;6.50;;
22963;SDS011;11648;49.306;6.934;2023-09-12T01:02:16;11.70;;;6.53;;
22963;SDS011;11648;49.306;6.934;2023-09-12T01:04:43;10.83;;;6.43;;
22963;SDS011;11648;49.306;6.934;2023-09-12T01:07:10;10.10;;;6.43;;
22963;SDS011;11648;49.306;6.934;2023-09-12T01:09:37;9.00;;;7.20;;
22963;SDS011;11648;49.306;6.934;2023-09-12T01:12:04;11.60;;;6.77;;
22963;SDS011;11648;49.306;6.934;2023-09-12T01:14:31;11.50;;;6.87;;
22963;SDS011;11648;49.306;6.934;2023-09-12T01:16:58;9.17;;;6.63;;
22963;SDS011;11648;49.306;6.934;2023-09-12T01:19:26;9.33;;;6.70;;
22963;SDS011;11648;49.306;6.934;2023-09-12T01:21:58;10.47;;;6.50;;
22963;SDS011;11648;49.306;6.934;2023-09-12T01:27:28;9.67;;;6.10;;
22963;SDS011;11648;49.306;6.934;2023-09-12T01:30:01;10.87;;;6.90;;
22963;SDS011;11648;49.306;6.934;2023-09-12T01:32:31;10.07;;;7.70;;
22963;SDS011;11648;49.306;6.934;2023-09-12T01:34:59;11.73;;;6.80;;
22963;SDS011;11648;49.306;6.934;2023-09-12T01:37:26;12.70;;;7.27;;
22963;SDS011;11648;49.306;6.934;2023-09-12T01:39:53;10.97;;;7.20;;
22963;SDS011;11648;49.306;6.934;2023-09-12T01:42:21;10.27;;;6.63;;
22963;SDS011;11648;49.306;6.934;2023-09-12T01:44:49;10.13;;;7.27;;
22963;SDS011;11648;49.306;6.934;2023-09-12T01:47:20;12.83;;;6.37;;
22963;SDS011;11648;49.306;6.934;2023-09-12T01:49:49;11.60;;;7.10;;
22963;SDS011;11648;49.306;6.934;2023-09-12T01:52:23;13.67;;;6.87;;
22963;SDS011;11648;49.306;6.934;2023-09-12T01:54:51;9.13;;;6.73;;
22963;SDS011;11648;49.306;6.934;2023-09-12T01:57:19;9.33;;;6.83;;
22963;SDS011;11648;49.306;6.934;2023-09-12T01:59:49;9.57;;;6.50;;
22963;SDS011;11648;49.306;6.934;2023-09-12T02:02:16;12.47;;;6.90;;
22963;SDS011;11648;49.306;6.934;2023-09-12T02:05:07;12.47;;;7.20;;
22963;SDS011;11648;49.306;6.934;2023-09-12T02:07:32;8.60;;;6.73;;
22963;SDS011;11648;49.306;6.934;2023-09-12T02:10:03;10.33;;;6.70;;
22963;SDS011;11648;49.306;6.934;2023-09-12T02:12:31;8.33;;;6.07;;
22963;SDS011;11648;49.306;6.934;2023-09-12T02:14:59;10.37;;;7.10;;
22963;SDS011;11648;49.306;6.934;2023-09-12T02:17:25;11.00;;;6.97;;
22963;SDS011;11648;49.306;6.934;2023-09-12T02:19:52;17.57;;;7.73;;
22963;SDS011;11648;49.306;6.934;2023-09-12T02:22:19;7.67;;;6.53;;
22963;SDS011;11648;49.306;6.934;2023-09-12T02:24:46;14.80;;;6.90;;
22963;SDS011;11648;49.306;6.934;2023-09-12T02:27:14;8.83;;;6.70;;
22963;SDS011;11648;49.306;6.934;2023-09-12T02:29:41;10.53;;;7.00;;
22963;SDS011;11648;49.306;6.934;2023-09-12T02:32:09;10.00;;;7.17;;
22963;SDS011;11648;49.306;6.934;2023-09-12T02:34:36;9.93;;;7.13;;
22963;SDS011;11648;49.306;6.934;2023-09-12T02:37:02;8.77;;;6.30;;
22963;SDS011;11648;49.306;6.934;2023-09-12T02:39:29;10.50;;;6.50;;
22963;SDS011;11648;49.306;6.934;2023-09-12T02:41:56;10.30;;;6.67;;
22963;SDS011;11648;49.306;6.934;2023-09-12T02:44:23;8.77;;;7.10;;
22963;SDS011;11648;49.306;6.934;2023-09-12T02:46:50;9.00;;;6.80;;
22963;SDS011;11648;49.306;6.934;2023-09-12T02:49:17;9.13;;;6.90;;
22963;SDS011;11648;49.306;6.934;2023-09-12T02:51:44;11.33;;;6.93;;
22963;SDS011;11648;49.306;6.934;2023-09-12T02:54:11;10.40;;;7.30;;
22963;SDS011;11648;49.306;6.934;2023-09-12T02:56:38;9.07;;;6.80;;
22963;SDS011;11648;49.306;6.934;2023-09-12T02:59:05;9.73;;;7.07;;
22963;SDS011;11648;49.306;6.934;2023-09-12T03:01:32;12.90;;;7.47;;
22963;SDS011;11648;49.306;6.934;2023-09-12T03:03:59;11.07;;;7.07;;
22963;SDS011;11648;49.306;6.934;2023-09-12T03:06:27;12.83;;;7.53;;
22963;SDS011;11648;49.306;6.934;2023-09-12T03:08:55;8.17;;;6.43;;
22963;SDS011;11648;49.306;6.934;2023-09-12T03:11:22;10.30;;;7.20;;
22963;SDS011;11648;49.306;6.934;2023-09-12T03:13:49;13.70;;;7.40;;
22963;SDS011;11648;49.306;6.934;2023-09-12T03:16:16;12.00;;;7.87;;
22963;SDS011;11648;49.306;6.934;2023-09-12T03:18:43;10.93;;;6.80;;
22963;SDS011;11648;49.306;6.934;2023-09-12T03:21:10;9.17;;;6.80;;
22963;SDS011;11648;49.306;6.934;2023-09-12T03:23:37;10.50;;;7.20;;
22963;SDS011;11648;49.306;6.934;2023-09-12T03:26:04;10.10;;;6.87;;
22963;SDS011;11648;49.306;6.934;2023-09-12T03:28:33;9.67;;;6.90;;
22963;SDS011;11648;49.306;6.934;2023-09-12T03:31:05;10.10;;;8.13;;
22963;SDS011;11648;49.306;6.934;2023-09-12T03:33:34;9.63;;;7.60;;
22963;SDS011;11648;49.306;6.934;2023-09-12T03:36:01;13.83;;;8.17;;
22963;SDS011;11648;49.306;6.934;2023-09-12T03:38:28;11.47;;;8.47;;
22963;SDS011;11648;49.306;6.934;2023-09-12T03:40:55;10.77;;;7.93;;
22963;SDS011;11648;49.306;6.934;2023-09-12T03:43:22;11.17;;;7.60;;
22963;SDS011;11648;49.306;6.934;2023-09-12T03:45:49;10.80;;;7.80;;
22963;SDS011;11648;49.306;6.934;2023-09-12T03:48:16;11.80;;;8.00;;
22963;SDS011;11648;49.306;6.934;2023-09-12T03:50:44;11.03;;;7.73;;
22963;SDS011;11648;49.306;6.934;2023-09-12T03:53:13;11.73;;;8.07;;
22963;SDS011;11648;49.306;6.934;2023-09-12T03:55:41;13.00;;;8.03;;
22963;SDS011;11648;49.306;6.934;2023-09-12T03:58:09;11.97;;;7.90;;
22963;SDS011;11648;49.306;6.934;2023-09-12T04:00:36;11.53;;;6.90;;
22963;SDS011;11648;49.306;6.934;2023-09-12T04:03:03;11.93;;;7.60;;
22963;SDS011;11648;49.306;6.934;2023-09-12T04:05:31;10.93;;;7.90;;
22963;SDS011;11648;49.306;6.934;2023-09-12T04:07:58;8.80;;;7.00;;
22963;SDS011;11648;49.306;6.934;2023-09-12T04:10:25;10.70;;;7.20;;
22963;SDS011;11648;49.306;6.934;2023-09-12T04:12:51;11.57;;;7.80;;
22963;SDS011;11648;49.306;6.934;2023-09-12T04:15:18;10.33;;;7.00;;
22963;SDS011;11648;49.306;6.934;2023-09-12T04:17:45;9.30;;;7.10;;
22963;SDS011;11648;49.306;6.934;2023-09-12T04:20:12;9.27;;;6.70;;
22963;SDS011;11648;49.306;6.934;2023-09-12T04:22:42;10.33;;;7.07;;
22963;SDS011;11648;49.306;6.934;2023-09-12T04:25:09;10.33;;;6.57;;
22963;SDS011;11648;49.306;6.934;2023-09-12T04:27:36;9.27;;;6.90;;
22963;SDS011;11648;49.306;6.934;2023-09-12T04:30:03;8.23;;;6.67;;
22963;SDS011;11648;49.306;6.934;2023-09-12T04:32:31;8.57;;;6.97;;
22963;SDS011;11648;49.306;6.934;2023-09-12T04:34:59;9.63;;;7.20;;
22963;SDS011;11648;49.306;6.934;2023-09-12T04:37:26;11.43;;;7.00;;
22963;SDS011;11648;49.306;6.934;2023-09-12T04:39:53;15.13;;;7.30;;
22963;SDS011;11648;49.306;6.934;2023-09-12T04:42:21;10.07;;;6.73;;
22963;SDS011;11648;49.306;6.934;2023-09-12T04:44:48;10.63;;;6.93;;
22963;SDS011;11648;49.306;6.934;2023-09-12T04:47:15;10.20;;;7.67;;
22963;SDS011;11648;49.306;6.934;2023-09-12T04:49:42;12.63;;;7.53;;
22963;SDS011;11648;49.306;6.934;2023-09-12T04:52:10;11.37;;;7.10;;
22963;SDS011;11648;49.306;6.934;2023-09-12T04:54:36;10.90;;;7.53;;
22963;SDS011;11648;49.306;6.934;2023-09-12T04:57:03;10.00;;;8.07;;
22963;SDS011;11648;49.306;6.934;2023-09-12T04:59:30;10.20;;;7.80;;
22963;SDS011;11648;49.306;6.934;2023-09-12T05:01:57;12.73;;;7.53;;
22963;SDS011;11648;49.306;6.934;2023-09-12T05:04:24;11.03;;;7.83;;
22963;SDS011;11648;49.306;6.934;2023-09-12T05:06:51;9.53;;;7.30;;
22963;SDS011;11648;49.306;6.934;2023-09-12T05:09:18;10.83;;;8.17;;
22963;SDS011;11648;49.306;6.934;2023-09-12T05:11:45;10.10;;;7.77;;
22963;SDS011;11648;49.306;6.934;2023-09-12T05:14:11;13.67;;;7.70;;
22963;SDS011;11648;49.306;6.934;2023-09-12T05:16:38;9.90;;;7.63;;
22963;SDS011;11648;49.306;6.934;2023-09-12T05:19:05;10.60;;;7.63;;
22963;SDS011;11648;49.306;6.934;2023-09-12T05:21:34;10.23;;;7.20;;
22963;SDS011;11648;49.306;6.934;2023-09-12T05:24:00;12.67;;;7.63;;
22963;SDS011;11648;49.306;6.934;2023-09-12T05:26:27;14.87;;;7.90;;
22963;SDS011;11648;49.306;6.934;2023-09-12T05:28:54;10.23;;;8.03;;
22963;SDS011;11648;49.306;6.934;2023-09-12T05:31:21;11.33;;;8.37;;
22963;SDS011;11648;49.306;6.934;2023-09-12T05:33:48;13.33;;;7.60;;
22963;SDS011;11648;49.306;6.934;2023-09-12T05:36:15;10.73;;;7.30;;
22963;SDS011;11648;49.306;6.934;2023-09-12T05:38:42;10.17;;;7.33;;
22963;SDS011;11648;49.306;6.934;2023-09-12T05:41:09;12.37;;;8.13;;
22963;SDS011;11648;49.306;6.934;2023-09-12T05:43:36;10.07;;;7.93;;
22963;SDS011;11648;49.306;6.934;2023-09-12T05:46:03;10.17;;;7.53;;
22963;SDS011;11648;49.306;6.934;2023-09-12T05:48:30;13.03;;;7.93;;
22963;SDS011;11648;49.306;6.934;2023-09-12T05:50:57;10.07;;;7.40;;
22963;SDS011;11648;49.306;6.934;2023-09-12T05:53:24;10.73;;;7.20;;
22963;SDS011;11648;49.306;6.934;2023-09-12T05:55:50;9.73;;;7.67;;
22963;SDS011;11648;49.306;6.934;2023-09-12T05:58:18;10.50;;;7.30;;
22963;SDS011;11648;49.306;6.934;2023-09-12T06:00:44;9.27;;;7.70;;
22963;SDS011;11648;49.306;6.934;2023-09-12T06:03:14;11.23;;;7.83;;
22963;SDS011;11648;49.306;6.934;2023-09-12T06:05:41;9.67;;;7.63;;
22963;SDS011;11648;49.306;6.934;2023-09-12T06:08:08;10.47;;;7.50;;
22963;SDS011;11648;49.306;6.934;2023-09-12T06:10:35;8.73;;;6.87;;
22963;SDS011;11648;49.306;6.934;2023-09-12T06:13:02;9.50;;;7.07;;
22963;SDS011;11648;49.306;6.934;2023-09-12T06:15:29;11.23;;;7.50;;
22963;SDS011;11648;49.306;6.934;2023-09-12T06:17:56;9.00;;;7.33;;
22963;SDS011;11648;49.306;6.934;2023-09-12T06:20:22;13.43;;;7.13;;
22963;SDS011;11648;49.306;6.934;2023-09-12T06:22:49;12.70;;;7.30;;
22963;SDS011;11648;49.306;6.934;2023-09-12T06:25:16;8.38;;;6.32;;
22963;SDS011;11648;49.306;6.934;2023-09-12T06:27:43;12.10;;;7.35;;
22963;SDS011;11648;49.306;6.934;2023-09-12T06:30:11;11.50;;;7.13;;
22963;SDS011;11648;49.306;6.934;2023-09-12T06:32:38;12.57;;;7.47;;
22963;SDS011;11648;49.306;6.934;2023-09-12T06:35:05;15.13;;;7.00;;
22963;SDS011;11648;49.306;6.934;2023-09-12T06:37:32;13.65;;;7.20;;
22963;SDS011;11648;49.306;6.934;2023-09-12T06:39:59;9.23;;;6.95;;
22963;SDS011;11648;49.306;6.934;2023-09-12T06:42:26;9.27;;;6.90;;
22963;SDS011;11648;49.306;6.934;2023-09-12T06:44:52;10.70;;;6.72;;
22963;SDS011;11648;49.306;6.934;2023-09-12T06:47:19;9.50;;;6.65;;
22963;SDS011;11648;49.306;6.934;2023-09-12T06:49:46;8.75;;;6.55;;
22963;SDS011;11648;49.306;6.934;2023-09-12T06:52:20;12.55;;;6.88;;
22963;SDS011;11648;49.306;6.934;2023-09-12T06:54:47;8.43;;;7.05;;
22963;SDS011;11648;49.306;6.934;2023-09-12T06:57:13;8.75;;;6.65;;
22963;SDS011;11648;49.306;6.934;2023-09-12T06:59:40;11.45;;;7.25;;
22963;SDS011;11648;49.306;6.934;2023-09-12T07:02:07;8.93;;;6.47;;
22963;SDS011;11648;49.306;6.934;2023-09-12T07:04:36;9.10;;;7.03;;
22963;SDS011;11648;49.306;6.934;2023-09-12T07:07:03;9.30;;;6.95;;
22963;SDS011;11648;49.306;6.934;2023-09-12T07:09:31;14.45;;;6.97;;
22963;SDS011;11648;49.306;6.934;2023-09-12T07:11:57;8.10;;;6.72;;
22963;SDS011;11648;49.306;6.934;2023-09-12T07:14:24;10.02;;;6.72;;
22963;SDS011;11648;49.306;6.934;2023-09-12T07:16:52;9.30;;;7.32;;
22963;SDS011;11648;49.306;6.934;2023-09-12T07:19:19;9.23;;;7.53;;
22963;SDS011;11648;49.306;6.934;2023-09-12T07:21:45;8.60;;;7.05;;
22963;SDS011;11648;49.306;6.934;2023-09-12T07:24:13;9.57;;;7.45;;
22963;SDS011;11648;49.306;6.934;2023-09-12T07:26:40;13.23;;;8.23;;
22963;SDS011;11648;49.306;6.934;2023-09-12T07:29:06;9.65;;;7.93;;
22963;SDS011;11648;49.306;6.934;2023-09-12T07:31:33;9.55;;;7.13;;
22963;SDS011;11648;49.306;6.934;2023-09-12T07:34:00;14.43;;;8.20;;
22963;SDS011;11648;49.306;6.934;2023-09-12T07:36:27;11.20;;;7.43;;
22963;SDS011;11648;49.306;6.934;2023-09-12T07:38:54;12.40;;;8.23;;
22963;SDS011;11648;49.306;6.934;2023-09-12T07:41:21;12.45;;;6.97;;
22963;SDS011;11648;49.306;6.934;2023-09-12T07:43:47;11.05;;;8.50;;
22963;SDS011;11648;49.306;6.934;2023-09-12T07:46:14;11.35;;;8.38;;
22963;SDS011;11648;49.306;6.934;2023-09-12T07:48:41;12.70;;;8.15;;
22963;SDS011;11648;49.306;6.934;2023-09-12T07:51:14;11.45;;;7.63;;
22963;SDS011;11648;49.306;6.934;2023-09-12T07:53:44;10.65;;;7.53;;
22963;SDS011;11648;49.306;6.934;2023-09-12T07:56:11;11.02;;;8.02;;
22963;SDS011;11648;49.306;6.934;2023-09-12T07:58:38;10.23;;;8.57;;
22963;SDS011;11648;49.306;6.934;2023-09-12T08:01:05;12.52;;;8.25;;
22963;SDS011;11648;49.306;6.934;2023-09-12T08:03:36;12.57;;;8.75;;
22963;SDS011;11648;49.306;6.934;2023-09-12T08:06:05;11.77;;;9.20;;
22963;SDS011;11648;49.306;6.934;2023-09-12T08:08:32;12.90;;;9.20;;
22963;SDS011;11648;49.306;6.934;2023-09-12T08:10:58;13.90;;;9.38;;
22963;SDS011;11648;49.306;6.934;2023-09-12T08:13:26;10.70;;;8.70;;
22963;SDS011;11648;49.306;6.934;2023-09-12T08:15:54;9.60;;;8.32;;
22963;SDS011;11648;49.306;6.934;2023-09-12T08:18:21;10.80;;;8.77;;
22963;SDS011;11648;49.306;6.934;2023-09-12T08:20:48;14.27;;;8.95;;
22963;SDS011;11648;49.306;6.934;2023-09-12T08:23:15;15.20;;;8.82;;
22963;SDS011;11648;49.306;6.934;2023-09-12T08:25:42;14.93;;;8.70;;
22963;SDS011;11648;49.306;6.934;2023-09-12T08:28:08;10.95;;;8.30;;
22963;SDS011;11648;49.306;6.934;2023-09-12T08:30:35;10.10;;;8.63;;
22963;SDS011;11648;49.306;6.934;2023-09-12T08:33:02;11.95;;;8.43;;
22963;SDS011;11648;49.306;6.934;2023-09-12T08:35:30;10.35;;;7.45;;
22963;SDS011;11648;49.306;6.934;2023-09-12T08:37:57;10.40;;;8.48;;
22963;SDS011;11648;49.306;6.934;2023-09-12T08:40:23;12.77;;;9.00;;
22963;SDS011;11648;49.306;6.934;2023-09-12T08:42:50;12.13;;;9.20;;
22963;SDS011;11648;49.306;6.934;2023-09-12T08:45:19;13.70;;;8.80;;
22963;SDS011;11648;49.306;6.934;2023-09-12T08:47:50;12.02;;;10.65;;
22963;SDS011;11648;49.306;6.934;2023-09-12T08:50:18;11.98;;;10.70;;
22963;SDS011;11648;49.306;6.934;2023-09-12T08:52:47;14.52;;;10.50;;
22963;SDS011;11648;49.306;6.934;2023-09-12T08:55:31;13.45;;;9.35;;
22963;SDS011;11648;49.306;6.934;2023-09-12T08:58:02;11.63;;;8.13;;
22963;SDS011;11648;49.306;6.934;2023-09-12T09:00:30;10.48;;;7.82;;
22963;SDS011;11648;49.306;6.934;2023-09-12T09:02:57;8.55;;;7.60;;
22963;SDS011;11648;49.306;6.934;2023-09-12T09:05:25;11.45;;;8.70;;
22963;SDS011;11648;49.306;6.934;2023-09-12T09:07:53;13.82;;;8.73;;
22963;SDS011;11648;49.306;6.934;2023-09-12T09:10:21;13.27;;;8.48;;
22963;SDS011;11648;49.306;6.934;2023-09-12T09:13:09;9.85;;;8.63;;
22963;SDS011;11648;49.306;6.934;2023-09-12T09:15:37;11.02;;;8.23;;
22963;SDS011;11648;49.306;6.934;2023-09-12T09:18:10;10.30;;;8.80;;
22963;SDS011;11648;49.306;6.934;2023-09-12T09:20:39;9.80;;;8.80;;
22963;SDS011;11648;49.306;6.934;2023-09-12T09:23:09;13.55;;;9.18;;
22963;SDS011;11648;49.306;6.934;2023-09-12T09:25:43;12.38;;;10.05;;
22963;SDS011;11648;49.306;6.934;2023-09-12T09:28:21;9.90;;;8.88;;
22963;SDS011;11648;49.306;6.934;2023-09-12T09:30:50;12.02;;;9.43;;
22963;SDS011;11648;49.306;6.934;2023-09-12T09:33:18;12.27;;;10.60;;
22963;SDS011;11648;49.306;6.934;2023-09-12T09:35:46;11.40;;;8.60;;
22963;SDS011;11648;49.306;6.934;2023-09-12T09:38:13;11.30;;;8.18;;
22963;SDS011;11648;49.306;6.934;2023-09-12T09:40:43;12.75;;;8.13;;
22963;SDS011;11648;49.306;6.934;2023-09-12T09:43:10;10.75;;;8.52;;
22963;SDS011;11648;49.306;6.934;2023-09-12T09:45:44;10.05;;;8.85;;
22963;SDS011;11648;49.306;6.934;2023-09-12T09:50:46;12.95;;;8.25;;
22963;SDS011;11648;49.306;6.934;2023-09-12T09:53:13;10.38;;;9.25;;
22963;SDS011;11648;49.306;6.934;2023-09-12T09:55:40;8.55;;;7.75;;
22963;SDS011;11648;49.306;6.934;2023-09-12T09:58:09;10.73;;;8.80;;
22963;SDS011;11648;49.306;6.934;2023-09-12T10:00:43;8.38;;;7.20;;
22963;SDS011;11648;49.306;6.934;2023-09-12T10:03:11;10.93;;;8.50;;
22963;SDS011;11648;49.306;6.934;2023-09-12T10:05:39;8.73;;;7.72;;
22963;SDS011;11648;49.306;6.934;2023-09-12T10:08:08;9.55;;;8.13;;
22963;SDS011;11648;49.306;6.934;2023-09-12T10:10:38;11.32;;;8.07;;
22963;SDS011;11648;49.306;6.934;2023-09-12T10:13:06;8.35;;;7.55;;
22963;SDS011;11648;49.306;6.934;2023-09-12T10:15:37;11.93;;;8.40;;
22963;SDS011;11648;49.306;6.934;2023-09-12T10:18:08;10.10;;;7.90;;
22963;SDS011;11648;49.306;6.934;2023-09-12T10:20:48;8.75;;;7.68;;
22963;SDS011;11648;49.306;6.934;2023-09-12T10:23:23;11.65;;;7.47;;
22963;SDS011;11648;49.306;6.934;2023-09-12T10:25:56;8.10;;;6.82;;
22963;SDS011;11648;49.306;6.934;2023-09-12T10:28:24;10.88;;;8.27;;
22963;SDS011;11648;49.306;6.934;2023-09-12T10:30:52;9.90;;;8.27;;
22963;SDS011;11648;49.306;6.934;2023-09-12T10:33:20;9.52;;;8.50;;
22963;SDS011;11648;49.306;6.934;2023-09-12T10:35:47;10.35;;;8.25;;
22963;SDS011;11648;49.306;6.934;2023-09-12T10:38:16;8.55;;;7.68;;
22963;SDS011;11648;49.306;6.934;2023-09-12T10:40:46;9.95;;;7.97;;
22963;SDS011;11648;49.306;6.934;2023-09-12T10:43:13;8.82;;;7.93;;
22963;SDS011;11648;49.306;6.934;2023-09-12T10:45:41;12.70;;;8.52;;
22963;SDS011;11648;49.306;6.934;2023-09-12T10:48:09;8.15;;;7.35;;
22963;SDS011;11648;49.306;6.934;2023-09-12T10:50:37;9.13;;;7.25;;
22963;SDS011;11648;49.306;6.934;2023-09-12T10:53:12;8.45;;;6.95;;
22963;SDS011;11648;49.306;6.934;2023-09-12T10:55:41;9.00;;;7.35;;
22963;SDS011;11648;49.306;6.934;2023-09-12T10:58:09;11.05;;;7.78;;
22963;SDS011;11648;49.306;6.934;2023-09-12T11:00:37;12.65;;;8.75;;
22963;SDS011;11648;49.306;6.934;2023-09-12T11:05:56;8.88;;;7.57;;
22963;SDS011;11648;49.306;6.934;2023-09-12T11:08:23;13.48;;;8.85;;
22963;SDS011;11648;49.306;6.934;2023-09-12T11:14:04;10.00;;;8.45;;
22963;SDS011;11648;49.306;6.934;2023-09-12T11:16:32;11.65;;;8.68;;
22963;SDS011;11648;49.306;6.934;2023-09-12T11:19:11;12.55;;;8.52;;
22963;SDS011;11648;49.306;6.934;2023-09-12T11:21:43;10.23;;;9.10;;
22963;SDS011;11648;49.306;6.934;2023-09-12T11:24:11;11.60;;;8.55;;
22963;SDS011;11648;49.306;6.934;2023-09-12T11:29:34;10.75;;;8.32;;
22963;SDS011;11648;49.306;6.934;2023-09-12T11:32:03;8.05;;;7.25;;
22963;SDS011;11648;49.306;6.934;2023-09-12T11:34:38;8.65;;;7.82;;
22963;SDS011;11648;49.306;6.934;2023-09-12T11:37:08;11.20;;;8.10;;
22963;SDS011;11648;49.306;6.934;2023-09-12T11:39:36;9.52;;;8.18;;
22963;SDS011;11648;49.306;6.934;2023-09-12T11:42:04;10.60;;;8.43;;
22963;SDS011;11648;49.306;6.934;2023-09-12T11:44:31;11.32;;;8.02;;
22963;SDS011;11648;49.306;6.934;2023-09-12T11:47:01;8.63;;;7.30;;
22963;SDS011;11648;49.306;6.934;2023-09-12T11:49:40;9.18;;;7.50;;
22963;SDS011;11648;49.306;6.934;2023-09-12T11:52:08;7.57;;;6.55;;
22963;SDS011;11648;49.306;6.934;2023-09-12T11:54:36;7.35;;;6.65;;
22963;SDS011;11648;49.306;6.934;2023-09-12T11:57:04;7.93;;;6.80;;
22963;SDS011;11648;49.306;6.934;2023-09-12T11:59:31;9.15;;;7.20;;
22963;SDS011;11648;49.306;6.934;2023-09-12T12:01:58;8.07;;;6.97;;
22963;SDS011;11648;49.306;6.934;2023-09-12T12:04:25;7.20;;;6.50;;
22963;SDS011;11648;49.306;6.934;2023-09-12T12:06:52;7.10;;;6.40;;
22963;SDS011;11648;49.306;6.934;2023-09-12T12:09:19;5.90;;;5.30;;
22963;SDS011;11648;49.306;6.934;2023-09-12T12:11:46;6.57;;;5.90;;
22963;SDS011;11648;49.306;6.934;2023-09-12T12:14:14;8.90;;;6.80;;
22963;SDS011;11648;49.306;6.934;2023-09-12T12:16:43;8.52;;;7.18;;
22963;SDS011;11648;49.306;6.934;2023-09-12T12:19:11;7.78;;;6.63;;
22963;SDS011;11648;49.306;6.934;2023-09-12T12:21:39;7.68;;;6.03;;
22963;SDS011;11648;49.306;6.934;2023-09-12T12:24:07;10.35;;;6.30;;
22963;SDS011;11648;49.306;6.934;2023-09-12T12:26:37;9.20;;;6.78;;
22963;SDS011;11648;49.306;6.934;2023-09-12T12:29:04;9.90;;;6.80;;
22963;SDS011;11648;49.306;6.934;2023-09-12T12:31:31;8.05;;;7.25;;
22963;SDS011;11648;49.306;6.934;2023-09-12T12:33:59;8.35;;;7.28;;
22963;SDS011;11648;49.306;6.934;2023-09-12T12:36:46;11.13;;;8.15;;
22963;SDS011;11648;49.306;6.934;2023-09-12T12:39:23;8.63;;;6.90;;
22963;SDS011;11648;49.306;6.934;2023-09-12T12:41:54;10.05;;;8.00;;
22963;SDS011;11648;49.306;6.934;2023-09-12T12:44:21;8.90;;;7.20;;
22963;SDS011;11648;49.306;6.934;2023-09-12T12:46:49;8.18;;;7.38;;
22963;SDS011;11648;49.306;6.934;2023-09-12T12:49:17;8.43;;;7.25;;
22963;SDS011;11648;49.306;6.934;2023-09-12T12:51:48;8.70;;;6.97;;
22963;SDS011;11648;49.306;6.934;2023-09-12T12:54:15;8.48;;;6.90;;
22963;SDS011;11648;49.306;6.934;2023-09-12T12:56:43;9.75;;;6.78;;
22963;SDS011;11648;49.306;6.934;2023-09-12T12:59:10;10.25;;;7.45;;
22963;SDS011;11648;49.306;6.934;2023-09-12T13:01:38;8.60;;;6.88;;
22963;SDS011;11648;49.306;6.934;2023-09-12T13:04:06;9.80;;;7.30;;
22963;SDS011;11648;49.306;6.934;2023-09-12T13:06:34;8.52;;;7.47;;
22963;SDS011;11648;49.306;6.934;2023-09-12T13:09:03;8.77;;;6.72;;
22963;SDS011;11648;49.306;6.934;2023-09-12T13:11:34;8.38;;;6.95;;
22963;SDS011;11648;49.306;6.934;2023-09-12T13:14:02;10.13;;;7.25;;
22963;SDS011;11648;49.306;6.934;2023-09-12T13:16:35;10.77;;;7.40;;
22963;SDS011;11648;49.306;6.934;2023-09-12T13:19:03;8.93;;;6.78;;
22963;SDS011;11648;49.306;6.934;2023-09-12T13:21:30;6.88;;;6.13;;
22963;SDS011;11648;49.306;6.934;2023-09-12T13:23:59;9.18;;;6.72;;
22963;SDS011;11648;49.306;6.934;2023-09-12T13:26:28;8.20;;;6.90;;
22963;SDS011;11648;49.306;6.934;2023-09-12T13:28:55;6.47;;;5.80;;
22963;SDS011;11648;49.306;6.934;2023-09-12T13:31:22;9.18;;;5.93;;
22963;SDS011;11648;49.306;6.934;2023-09-12T13:33:49;6.80;;;6.10;;
22963;SDS011;11648;49.306;6.934;2023-09-12T13:36:16;6.97;;;6.13;;
22963;SDS011;11648;49.306;6.934;2023-09-12T13:38:43;8.98;;;6.55;;
22963;SDS011;11648;49.306;6.934;2023-09-12T13:41:10;8.35;;;6.40;;
22963;SDS011;11648;49.306;6.934;2023-09-12T13:43:36;7.55;;;6.28;;
22963;SDS011;11648;49.306;6.934;2023-09-12T13:46:03;8.07;;;6.43;;
22963;SDS011;11648;49.306;6.934;2023-09-12T13:48:30;7.82;;;6.53;;
22963;SDS011;11648;49.306;6.934;2023-09-12T13:50:57;8.10;;;6.50;;
22963;SDS011;11648;49.306;6.934;2023-09-12T13:53:24;10.18;;;7.32;;
22963;SDS011;11648;49.306;6.934;2023-09-12T13:55:50;7.47;;;6.78;;
22963;SDS011;11648;49.306;6.934;2023-09-12T13:58:17;9.05;;;6.65;;
22963;SDS011;11648;49.306;6.934;2023-09-12T14:00:44;11.60;;;6.82;;
22963;SDS011;11648;49.306;6.934;2023-09-12T14:03:11;7.90;;;6.65;;
22963;SDS011;11648;49.306;6.934;2023-09-12T14:05:38;8.25;;;6.35;;
22963;SDS011;11648;49.306;6.934;2023-09-12T14:08:07;7.57;;;6.75;;
22963;SDS011;11648;49.306;6.934;2023-09-12T14:10:35;9.27;;;7.03;;
22963;SDS011;11648;49.306;6.934;2023-09-12T14:13:04;9.20;;;6.70;;
22963;SDS011;11648;49.306;6.934;2023-09-12T14:15:33;7.85;;;6.50;;
22963;SDS011;11648;49.306;6.934;2023-09-12T14:18:01;7.10;;;6.10;;
22963;SDS011;11648;49.306;6.934;2023-09-12T14:20:28;6.32;;;5.72;;
22963;SDS011;11648;49.306;6.934;2023-09-12T14:22:56;8.48;;;6.38;;
22963;SDS011;11648;49.306;6.934;2023-09-12T14:25:24;7.50;;;6.70;;
22963;SDS011;11648;49.306;6.934;2023-09-12T14:27:53;8.23;;;6.50;;
22963;SDS011;11648;49.306;6.934;2023-09-12T14:30:20;8.40;;;6.38;;
22963;SDS011;11648;49.306;6.934;2023-09-12T14:32:49;10.68;;;6.60;;
22963;SDS011;11648;49.306;6.934;2023-09-12T14:35:16;7.38;;;6.45;;
22963;SDS011;11648;49.306;6.934;2023-09-12T14:37:43;8.20;;;7.32;;
22963;SDS011;11648;49.306;6.934;2023-09-12T14:40:10;7.32;;;6.50;;
22963;SDS011;11648;49.306;6.934;2023-09-12T14:42:38;9.98;;;6.90;;
22963;SDS011;11648;49.306;6.934;2023-09-12T14:45:05;12.82;;;6.55;;
22963;SDS011;11648;49.306;6.934;2023-09-12T14:47:32;8.80;;;6.85;;
22963;SDS011;11648;49.306;6.934;2023-09-12T14:49:59;7.75;;;6.90;;
22963;SDS011;11648;49.306;6.934;2023-09-12T14:52:27;7.80;;;6.90;;
22963;SDS011;11648;49.306;6.934;2023-09-12T14:54:56;7.13;;;6.38;;
22963;SDS011;11648;49.306;6.934;2023-09-12T14:57:25;8.77;;;6.38;;
22963;SDS011;11648;49.306;6.934;2023-09-12T14:59:52;7.63;;;6.13;;